createdAt,value
2023-01-26T00:00:56.310Z,76.07
2023-01-26T00:03:24.737Z,77.32
2023-01-26T00:05:53.150Z,75.70
2023-01-26T00:08:21.347Z,83.10
2023-01-26T00:10:51.278Z,84.28
2023-01-26T00:13:20.915Z,79.97
2023-01-26T00:15:49.308Z,93.13
2023-01-26T00:18:18.946Z,92.78
2023-01-26T00:20:47.242Z,83.38
2023-01-26T00:23:15.460Z,100.22
2023-01-26T00:25:43.811Z,84.43
2023-01-26T00:28:12.059Z,82.22
2023-01-26T00:30:40.341Z,85.70
2023-01-26T00:33:08.616Z,89.78
2023-01-26T00:35:38.216Z,84.60
2023-01-26T00:38:06.798Z,86.88
2023-01-26T00:40:35.546Z,76.78
2023-01-26T00:43:03.758Z,87.97
2023-01-26T00:45:32.011Z,86.65
2023-01-26T00:48:00.849Z,79.70
2023-01-26T00:50:31.333Z,81.53
2023-01-26T00:53:44.009Z,88.47
2023-01-26T00:56:14.883Z,79.53
2023-01-26T00:58:44.793Z,83.90
2023-01-26T01:01:56.104Z,82.80
2023-01-26T01:04:49.461Z,79.70
2023-01-26T01:07:17.745Z,75.03
2023-01-26T01:09:48.259Z,85.38
2023-01-26T01:12:16.496Z,86.30
2023-01-26T01:14:44.982Z,81.45
2023-01-26T01:17:13.286Z,72.75
2023-01-26T01:19:41.787Z,81.65
2023-01-26T01:22:10.074Z,82.28
2023-01-26T01:24:38.482Z,86.13
2023-01-26T01:27:08.175Z,73.55
2023-01-26T01:29:36.489Z,78.90
2023-01-26T01:32:05.103Z,75.90
2023-01-26T01:34:33.379Z,75.35
2023-01-26T01:37:01.629Z,83.80
2023-01-26T01:39:30.018Z,88.13
2023-01-26T01:41:58.327Z,80.68
2023-01-26T01:44:28.100Z,84.07
2023-01-26T01:46:58.848Z,76.97
2023-01-26T01:49:30.712Z,86.35
2023-01-26T01:52:07.160Z,79.53
2023-01-26T01:54:40.339Z,89.20
2023-01-26T01:57:17.728Z,77.78
2023-01-26T01:59:52.677Z,75.97
2023-01-26T02:02:21.655Z,70.90
2023-01-26T02:04:50.059Z,78.32
2023-01-26T02:07:18.426Z,75.82
2023-01-26T02:10:15.903Z,70.97
2023-01-26T02:12:44.426Z,79.07
2023-01-26T02:15:15.784Z,76.32
2023-01-26T02:17:44.115Z,74.75
2023-01-26T02:20:19.604Z,77.57
2023-01-26T02:22:55.108Z,72.28
2023-01-26T02:25:33.348Z,75.30
2023-01-26T02:28:03.180Z,87.22
2023-01-26T02:30:31.893Z,73.47
2023-01-26T02:33:00.618Z,74.43
2023-01-26T02:35:29.064Z,74.00
2023-01-26T02:37:58.234Z,74.07
2023-01-26T02:40:33.784Z,80.38
2023-01-26T02:43:02.643Z,79.30
2023-01-26T02:45:32.564Z,71.53
2023-01-26T02:48:04.792Z,71.07
2023-01-26T02:50:32.570Z,79.18
2023-01-26T02:53:01.405Z,79.47
2023-01-26T02:55:32.036Z,72.82
2023-01-26T02:58:04.190Z,75.95
2023-01-26T03:00:38.229Z,83.32
2023-01-26T03:03:13.358Z,80.40
2023-01-26T03:05:42.020Z,85.50
2023-01-26T03:08:10.563Z,90.47
2023-01-26T03:10:40.071Z,69.45
2023-01-26T03:13:09.940Z,75.00
2023-01-26T03:15:43.974Z,77.90
2023-01-26T03:18:33.627Z,72.45
2023-01-26T03:21:20.724Z,68.15
2023-01-26T03:24:06.745Z,75.93
2023-01-26T03:26:53.748Z,72.85
2023-01-26T03:29:26.722Z,74.65
2023-01-26T03:31:59.322Z,79.90
2023-01-26T03:34:29.546Z,75.03
2023-01-26T03:36:58.872Z,79.18
2023-01-26T03:39:48.124Z,77.28
2023-01-26T03:42:34.462Z,75.38
2023-01-26T03:45:21.731Z,80.18
2023-01-26T03:48:08.264Z,72.85
2023-01-26T03:50:54.327Z,82.32
2023-01-26T03:53:42.480Z,76.07
2023-01-26T03:56:23.277Z,79.32
2023-01-26T03:58:56.712Z,77.57
2023-01-26T04:01:28.745Z,73.95
2023-01-26T04:04:17.628Z,84.97
2023-01-26T04:07:07.145Z,77.63
2023-01-26T04:09:39.585Z,81.55
2023-01-26T04:12:10.349Z,76.43
2023-01-26T04:15:03.169Z,78.05
2023-01-26T04:17:50.405Z,82.88
2023-01-26T04:20:36.756Z,79.00
2023-01-26T04:23:05.204Z,73.28
2023-01-26T04:25:33.631Z,72.55
2023-01-26T04:28:01.913Z,80.35
2023-01-26T04:30:31.436Z,74.03
2023-01-26T04:33:01.266Z,73.65
2023-01-26T04:35:29.576Z,78.32
2023-01-26T04:38:00.266Z,74.53
2023-01-26T04:40:28.739Z,83.32
2023-01-26T04:42:58.051Z,75.90
2023-01-26T04:45:26.463Z,84.28
2023-01-26T04:47:55.453Z,89.20
2023-01-26T04:50:25.268Z,79.75
2023-01-26T04:52:54.106Z,81.32
2023-01-26T04:55:22.459Z,69.97
2023-01-26T04:57:50.735Z,79.20
2023-01-26T05:00:19.691Z,73.97
2023-01-26T05:02:48.009Z,77.25
2023-01-26T05:05:16.711Z,70.50
2023-01-26T05:07:50.401Z,76.22
2023-01-26T05:10:19.340Z,71.05
2023-01-26T05:13:25.861Z,79.13
2023-01-26T05:16:07.892Z,80.35
2023-01-26T05:19:01.555Z,77.60
2023-01-26T05:22:04.865Z,77.07
2023-01-26T05:24:37.279Z,81.20
2023-01-26T05:27:25.408Z,81.75
2023-01-26T05:30:00.496Z,73.15
2023-01-26T05:32:30.127Z,75.03
2023-01-26T05:34:59.668Z,80.57
2023-01-26T05:37:29.536Z,80.70
2023-01-26T05:39:59.814Z,78.18
2023-01-26T05:42:28.762Z,82.15
2023-01-26T05:45:16.149Z,85.35
2023-01-26T05:47:46.360Z,73.07
2023-01-26T05:50:17.885Z,77.97
2023-01-26T05:53:06.289Z,80.45
2023-01-26T05:55:38.754Z,73.93
2023-01-26T05:58:07.081Z,84.60
2023-01-26T06:00:35.493Z,75.38
2023-01-26T06:03:09.960Z,80.57
2023-01-26T06:05:38.863Z,77.18
2023-01-26T06:08:18.034Z,87.40
2023-01-26T06:11:01.969Z,83.47
2023-01-26T06:13:43.344Z,80.25
2023-01-26T06:16:24.958Z,82.63
2023-01-26T06:18:53.367Z,92.63
2023-01-26T06:21:22.169Z,83.80
2023-01-26T06:23:51.345Z,80.38
2023-01-26T06:26:21.119Z,82.55
2023-01-26T06:28:49.800Z,87.05
2023-01-26T06:31:19.329Z,70.63
2023-01-26T06:33:49.925Z,83.63
2023-01-26T06:36:19.028Z,78.35
2023-01-26T06:38:50.814Z,85.75
2023-01-26T06:41:21.229Z,85.88
2023-01-26T06:43:50.514Z,83.47
2023-01-26T06:46:19.615Z,79.55
2023-01-26T06:48:53.588Z,84.80
2023-01-26T06:51:55.798Z,81.25
2023-01-26T06:54:30.722Z,85.13
2023-01-26T06:57:19.093Z,85.43
2023-01-26T07:00:13.494Z,75.22
2023-01-26T07:02:58.057Z,83.65
2023-01-26T07:05:26.349Z,80.47
2023-01-26T07:07:55.429Z,78.93
2023-01-26T07:10:24.256Z,90.07
2023-01-26T07:12:53.899Z,86.15
2023-01-26T07:15:22.122Z,75.90
2023-01-26T07:17:50.361Z,92.93
2023-01-26T07:20:18.834Z,81.80
2023-01-26T07:22:47.148Z,68.55
2023-01-26T07:25:15.769Z,85.97
2023-01-26T07:27:44.194Z,89.88
2023-01-26T07:30:15.480Z,84.15
2023-01-26T07:32:43.851Z,85.45
2023-01-26T07:35:12.325Z,86.13
2023-01-26T07:37:40.579Z,92.43
2023-01-26T07:40:10.819Z,78.85
2023-01-26T07:42:40.530Z,78.20
2023-01-26T07:45:30.450Z,89.05
2023-01-26T07:47:59.089Z,94.18
2023-01-26T07:50:27.460Z,85.95
2023-01-26T07:52:55.662Z,95.45
2023-01-26T07:55:26.178Z,88.25
2023-01-26T07:57:54.444Z,84.80
2023-01-26T08:00:23.109Z,90.30
2023-01-26T08:02:53.052Z,84.20
2023-01-26T08:05:28.209Z,85.88
2023-01-26T08:08:08.878Z,90.80
2023-01-26T08:13:44.288Z,82.53
2023-01-26T08:16:46.784Z,83.25
2023-01-26T08:19:23.634Z,75.10
2023-01-26T08:22:08.652Z,83.80
2023-01-26T08:24:53.321Z,77.00
2023-01-26T08:30:34.473Z,81.78
2023-01-26T08:33:34.777Z,82.30
2023-01-26T08:36:29.959Z,78.20
2023-01-26T08:39:18.678Z,80.90
2023-01-26T08:44:49.874Z,73.07
2023-01-26T08:47:19.697Z,72.10
2023-01-26T08:49:56.659Z,63.83
2023-01-26T08:52:41.650Z,74.18
2023-01-26T08:55:42.439Z,74.57
2023-01-26T08:58:28.476Z,61.88
2023-01-26T09:01:26.564Z,65.65
2023-01-26T09:04:18.529Z,57.63
2023-01-26T09:10:07.054Z,69.10
2023-01-26T09:12:35.483Z,59.28
2023-01-26T09:15:07.186Z,67.30
2023-01-26T09:17:41.445Z,60.15
2023-01-26T09:20:21.914Z,57.55
2023-01-26T09:23:06.303Z,52.72
2023-01-26T09:25:38.369Z,54.80
2023-01-26T09:28:08.425Z,59.17
2023-01-26T09:30:39.405Z,54.97
2023-01-26T09:33:18.698Z,56.42
2023-01-26T09:35:53.630Z,54.88
2023-01-26T09:38:22.245Z,55.95
2023-01-26T09:41:40.207Z,48.65
2023-01-26T09:44:22.973Z,49.83
2023-01-26T09:47:07.521Z,49.45
2023-01-26T09:50:01.835Z,45.30
2023-01-26T09:52:49.628Z,45.85
2023-01-26T09:55:44.018Z,45.50
2023-01-26T09:58:22.709Z,42.47
2023-01-26T10:00:56.993Z,41.20
2023-01-26T10:03:32.192Z,44.10
2023-01-26T10:06:11.561Z,40.13
2023-01-26T10:09:19.319Z,40.25
2023-01-26T10:11:49.878Z,39.42
2023-01-26T10:14:24.177Z,41.92
2023-01-26T10:16:59.041Z,34.13
2023-01-26T10:19:38.499Z,44.25
2023-01-26T10:22:13.930Z,41.40
2023-01-26T10:24:45.807Z,43.53
2023-01-26T10:27:15.186Z,42.58
2023-01-26T10:29:59.483Z,35.90
2023-01-26T10:32:27.885Z,38.15
2023-01-26T10:34:56.568Z,35.67
2023-01-26T10:37:32.151Z,36.58
2023-01-26T10:40:02.638Z,32.55
2023-01-26T10:42:38.721Z,35.78
2023-01-26T10:45:28.052Z,35.53
2023-01-26T10:48:24.178Z,36.92
2023-01-26T10:51:20.648Z,37.08
2023-01-26T10:53:48.990Z,43.03
2023-01-26T10:56:18.556Z,30.60
2023-01-26T10:58:50.183Z,36.28
2023-01-26T11:01:23.287Z,33.60
2023-01-26T11:04:05.872Z,32.33
2023-01-26T11:06:38.079Z,41.30
2023-01-26T11:09:19.913Z,30.35
2023-01-26T11:12:00.736Z,33.97
2023-01-26T11:14:30.521Z,32.83
2023-01-26T11:17:13.376Z,33.17
2023-01-26T11:19:57.701Z,30.25
2023-01-26T11:22:32.126Z,34.47
2023-01-26T11:25:10.512Z,31.55
2023-01-26T11:27:52.885Z,31.48
2023-01-26T11:30:45.028Z,30.58
2023-01-26T11:33:26.159Z,41.03
2023-01-26T11:36:01.429Z,34.83
2023-01-26T11:38:41.784Z,31.38
2023-01-26T11:41:25.603Z,32.40
2023-01-26T11:44:17.567Z,33.17
2023-01-26T11:46:58.271Z,34.50
2023-01-26T11:49:44.819Z,37.55
2023-01-26T11:52:22.061Z,33.33
2023-01-26T11:55:14.975Z,30.95
2023-01-26T11:57:58.018Z,32.92
2023-01-26T12:00:34.886Z,31.65
2023-01-26T12:03:05.347Z,31.17
2023-01-26T12:05:43.230Z,33.83
2023-01-26T12:08:20.615Z,32.95
2023-01-26T12:10:58.507Z,34.78
2023-01-26T12:13:35.857Z,35.72
2023-01-26T12:16:15.145Z,33.00
2023-01-26T12:19:01.885Z,38.65
2023-01-26T12:21:43.923Z,33.05
2023-01-26T12:24:51.940Z,30.40
2023-01-26T12:27:17.429Z,36.13
2023-01-26T12:29:52.313Z,32.28
2023-01-26T12:32:22.665Z,31.33
2023-01-26T12:34:51.202Z,31.67
2023-01-26T12:37:43.520Z,37.60
2023-01-26T12:40:23.425Z,34.38
2023-01-26T12:43:01.407Z,29.98
2023-01-26T12:45:35.156Z,31.30
2023-01-26T12:48:10.982Z,33.80
2023-01-26T12:50:44.284Z,35.20
2023-01-26T12:53:19.390Z,30.10
2023-01-26T12:55:50.809Z,32.50
2023-01-26T12:58:24.885Z,28.15
2023-01-26T13:01:03.670Z,33.08
2023-01-26T13:03:35.011Z,29.60
2023-01-26T13:06:19.488Z,31.25
2023-01-26T13:09:00.842Z,38.13
2023-01-26T13:11:47.416Z,32.90
2023-01-26T13:14:37.861Z,35.42
2023-01-26T13:17:49.872Z,35.47
2023-01-26T13:20:44.114Z,29.67
2023-01-26T13:23:38.674Z,31.05
2023-01-26T13:26:20.595Z,31.27
2023-01-26T13:28:50.199Z,30.80
2023-01-26T13:31:35.290Z,37.33
2023-01-26T13:34:09.178Z,41.78
2023-01-26T13:36:41.223Z,28.17
2023-01-26T13:39:15.894Z,32.10
2023-01-26T13:41:49.666Z,32.13
2023-01-26T13:44:22.965Z,35.53
2023-01-26T13:46:57.485Z,40.88
2023-01-26T13:49:27.845Z,33.40
2023-01-26T13:51:56.181Z,34.75
2023-01-26T13:54:26.904Z,35.53
2023-01-26T13:57:05.420Z,36.30
2023-01-26T13:59:34.644Z,33.47
2023-01-26T14:02:03.160Z,31.40
2023-01-26T14:04:35.065Z,35.40
2023-01-26T14:07:07.127Z,37.58
2023-01-26T14:09:44.194Z,35.80
2023-01-26T14:12:22.881Z,35.00
2023-01-26T14:14:53.310Z,33.70
2023-01-26T14:17:29.036Z,32.47
2023-01-26T14:19:58.306Z,39.30
2023-01-26T14:22:27.063Z,38.30
2023-01-26T14:24:56.161Z,47.53
2023-01-26T14:27:33.790Z,41.72
2023-01-26T14:30:05.063Z,44.70
2023-01-26T14:32:33.539Z,35.28
2023-01-26T14:35:02.061Z,37.55
2023-01-26T14:37:30.582Z,43.28
2023-01-26T14:40:19.519Z,40.35
2023-01-26T14:42:51.088Z,39.40
2023-01-26T14:45:21.891Z,40.55
2023-01-26T14:47:50.301Z,41.58
2023-01-26T14:50:26.972Z,45.80
2023-01-26T14:52:55.763Z,44.22
2023-01-26T14:55:28.747Z,45.00
2023-01-26T14:57:59.391Z,41.45
2023-01-26T15:00:30.488Z,42.85
2023-01-26T15:03:01.807Z,45.05
2023-01-26T15:05:34.751Z,41.88
2023-01-26T15:08:05.152Z,42.83
2023-01-26T15:10:37.660Z,44.97
2023-01-26T15:13:19.952Z,47.20
2023-01-26T15:15:50.418Z,55.65
2023-01-26T15:18:21.473Z,52.42
2023-01-26T15:21:00.567Z,51.40
2023-01-26T15:23:32.071Z,48.53
2023-01-26T15:26:08.911Z,55.22
2023-01-26T15:28:39.705Z,56.15
2023-01-26T15:31:09.478Z,61.97
2023-01-26T15:33:58.681Z,51.25
2023-01-26T15:36:49.504Z,52.60
2023-01-26T15:39:19.302Z,53.97
2023-01-26T15:42:01.753Z,51.33
2023-01-26T15:44:31.526Z,62.65
2023-01-26T15:46:59.863Z,62.95
2023-01-26T15:49:28.322Z,63.95
2023-01-26T15:51:56.639Z,62.53
2023-01-26T15:54:24.932Z,56.70
2023-01-26T15:56:53.213Z,59.95
2023-01-26T15:59:21.508Z,71.03
2023-01-26T16:01:51.320Z,67.38
2023-01-26T16:04:19.778Z,65.22
2023-01-26T16:06:48.027Z,60.88
2023-01-26T16:09:16.256Z,54.95
2023-01-26T16:11:48.733Z,59.22
2023-01-26T16:14:17.730Z,51.33
2023-01-26T16:16:46.243Z,69.72
2023-01-26T16:19:33.731Z,53.92
2023-01-26T16:22:03.217Z,59.00
2023-01-26T16:24:31.389Z,53.00
2023-01-26T16:26:59.662Z,76.03
2023-01-26T16:29:27.961Z,63.08
2023-01-26T16:31:56.400Z,71.70
2023-01-26T16:34:26.200Z,66.72
2023-01-26T16:36:55.897Z,68.75
2023-01-26T16:39:24.291Z,67.97
2023-01-26T16:41:52.587Z,65.65
2023-01-26T16:44:23.070Z,56.60
2023-01-26T16:46:51.355Z,57.40
2023-01-26T16:49:19.724Z,62.92
2023-01-26T16:51:49.406Z,69.10
2023-01-26T16:54:17.641Z,59.38
2023-01-26T16:56:46.366Z,69.38
2023-01-26T16:59:14.667Z,71.60
2023-01-26T17:01:43.593Z,58.17
2023-01-26T17:04:12.355Z,62.75
2023-01-26T17:06:40.592Z,68.18
2023-01-26T17:09:10.696Z,59.05
2023-01-26T17:11:41.401Z,56.65
2023-01-26T17:14:10.989Z,56.55
2023-01-26T17:16:39.341Z,60.03
2023-01-26T17:19:09.430Z,60.15
2023-01-26T17:21:38.152Z,59.58
2023-01-26T17:24:07.956Z,68.20
2023-01-26T17:26:37.809Z,51.88
2023-01-26T17:29:06.147Z,58.15
2023-01-26T17:31:35.224Z,63.70
2023-01-26T17:34:03.899Z,62.25
2023-01-26T17:36:32.325Z,60.30
2023-01-26T17:39:00.626Z,60.67
2023-01-26T17:41:28.895Z,61.13
2023-01-26T17:43:58.695Z,56.78
2023-01-26T17:46:27.000Z,56.90
2023-01-26T17:48:56.111Z,57.83
2023-01-26T17:51:24.480Z,50.05
2023-01-26T17:53:54.289Z,67.28
2023-01-26T17:56:23.562Z,58.85
2023-01-26T17:58:54.413Z,66.07
2023-01-26T18:01:26.683Z,51.30
2023-01-26T18:03:55.119Z,55.13
2023-01-26T18:06:23.866Z,52.70
2023-01-26T18:08:52.256Z,62.53
2023-01-26T18:11:20.546Z,52.45
2023-01-26T18:13:49.080Z,50.25
2023-01-26T18:16:19.202Z,50.53
2023-01-26T18:18:49.948Z,50.17
2023-01-26T18:21:20.262Z,48.00
2023-01-26T18:23:49.869Z,46.95
2023-01-26T18:26:19.919Z,52.08
2023-01-26T18:28:49.165Z,50.03
2023-01-26T18:31:18.905Z,47.95
2023-01-26T18:33:48.967Z,49.35
2023-01-26T18:36:19.459Z,47.30
2023-01-26T18:38:51.160Z,50.45
2023-01-26T18:41:20.745Z,45.75
2023-01-26T18:43:51.498Z,45.50
2023-01-26T18:46:20.174Z,43.97
2023-01-26T18:48:50.127Z,48.67
2023-01-26T18:51:19.234Z,43.90
2023-01-26T18:53:47.563Z,40.53
2023-01-26T18:56:17.679Z,41.88
2023-01-26T18:58:46.327Z,39.50
2023-01-26T19:01:16.629Z,55.15
2023-01-26T19:03:47.572Z,43.55
2023-01-26T19:06:19.845Z,40.42
2023-01-26T19:08:55.474Z,39.15
2023-01-26T19:11:23.855Z,42.15
2023-01-26T19:13:52.090Z,31.60
2023-01-26T19:16:20.615Z,40.30
2023-01-26T19:18:49.973Z,44.08
2023-01-26T19:21:21.863Z,45.35
2023-01-26T19:23:50.968Z,49.35
2023-01-26T19:26:22.146Z,48.05
2023-01-26T19:28:51.162Z,38.53
2023-01-26T19:31:20.235Z,43.45
2023-01-26T19:33:52.513Z,42.33
2023-01-26T19:36:23.993Z,44.65
2023-01-26T19:38:53.312Z,46.47
2023-01-26T19:41:23.783Z,42.35
2023-01-26T19:43:52.491Z,42.10
2023-01-26T19:46:21.458Z,55.40
2023-01-26T19:48:50.331Z,51.20
2023-01-26T19:51:20.736Z,49.97
2023-01-26T19:53:52.691Z,49.42
2023-01-26T19:56:23.868Z,57.63
2023-01-26T19:58:53.519Z,53.50
2023-01-26T20:01:23.431Z,53.85
2023-01-26T20:03:52.672Z,51.50
2023-01-26T20:06:23.937Z,57.33
2023-01-26T20:08:54.879Z,47.00
2023-01-26T20:11:25.282Z,51.15
2023-01-26T20:13:56.344Z,51.10
2023-01-26T20:16:24.912Z,44.20
2023-01-26T20:18:53.432Z,56.60
2023-01-26T20:21:22.231Z,45.65
2023-01-26T20:23:54.912Z,49.05
2023-01-26T20:26:26.385Z,40.92
2023-01-26T20:28:57.966Z,54.47
2023-01-26T20:31:27.088Z,51.22
2023-01-26T20:33:56.235Z,46.70
2023-01-26T20:36:27.258Z,39.17
2023-01-26T20:38:56.191Z,52.97
2023-01-26T20:41:27.509Z,45.65
2023-01-26T20:44:00.535Z,46.70
2023-01-26T20:46:30.741Z,42.30
2023-01-26T20:48:59.464Z,51.40
2023-01-26T20:51:30.654Z,41.50
2023-01-26T20:53:59.462Z,42.88
2023-01-26T20:56:29.497Z,44.45
2023-01-26T20:58:58.279Z,39.65
2023-01-26T21:01:27.165Z,50.42
2023-01-26T21:03:56.179Z,48.08
2023-01-26T21:06:26.283Z,54.35
2023-01-26T21:08:56.170Z,52.13
2023-01-26T21:11:26.648Z,52.75
2023-01-26T21:13:58.671Z,54.33
2023-01-26T21:16:27.060Z,53.58
2023-01-26T21:18:55.463Z,51.40
2023-01-26T21:21:24.237Z,53.30
2023-01-26T21:23:53.269Z,48.80
2023-01-26T21:26:22.990Z,47.10
2023-01-26T21:28:52.671Z,46.05
2023-01-26T21:31:25.136Z,48.15
2023-01-26T21:33:54.424Z,44.55
2023-01-26T21:36:24.568Z,41.58
2023-01-26T21:38:55.692Z,48.33
2023-01-26T21:41:42.753Z,53.63
2023-01-26T21:44:13.158Z,46.53
2023-01-26T21:46:42.947Z,42.42
2023-01-26T21:49:11.711Z,50.03
2023-01-26T21:51:57.557Z,48.53
2023-01-26T21:54:26.737Z,42.55
2023-01-26T21:56:55.028Z,50.08
2023-01-26T21:59:22.867Z,45.38
2023-01-26T22:01:54.270Z,48.05
2023-01-26T22:04:24.171Z,42.08
2023-01-26T22:06:53.280Z,50.88
2023-01-26T22:09:23.913Z,41.40
2023-01-26T22:11:52.771Z,44.08
2023-01-26T22:14:22.938Z,52.03
2023-01-26T22:16:53.027Z,50.13
2023-01-26T22:19:21.573Z,50.78
2023-01-26T22:21:50.119Z,47.13
2023-01-26T22:24:19.058Z,41.33
2023-01-26T22:26:48.280Z,48.70
2023-01-26T22:29:16.555Z,44.85
2023-01-26T22:31:44.846Z,48.53
2023-01-26T22:34:14.651Z,54.00
2023-01-26T22:36:43.030Z,45.83
2023-01-26T22:39:12.209Z,47.22
2023-01-26T22:41:40.585Z,48.45
2023-01-26T22:44:09.210Z,47.60
2023-01-26T22:46:37.930Z,47.65
2023-01-26T22:49:06.304Z,52.58
2023-01-26T22:51:37.566Z,45.00
2023-01-26T22:54:06.632Z,45.78
2023-01-26T22:56:35.173Z,49.42
2023-01-26T22:59:03.476Z,51.70
2023-01-26T23:01:33.695Z,46.03
2023-01-26T23:04:02.852Z,50.63
2023-01-26T23:06:31.338Z,51.47
2023-01-26T23:09:04.622Z,53.88
2023-01-26T23:11:33.000Z,45.88
2023-01-26T23:14:01.641Z,48.28
2023-01-26T23:16:30.312Z,51.47
2023-01-26T23:18:59.763Z,43.75
2023-01-26T23:21:28.963Z,53.85
2023-01-26T23:23:57.669Z,49.40
2023-01-26T23:26:27.704Z,45.92
2023-01-26T23:28:55.956Z,44.78
2023-01-26T23:31:24.335Z,58.00
2023-01-26T23:33:52.694Z,55.80
2023-01-26T23:36:21.865Z,63.55
2023-01-26T23:38:50.470Z,56.70
2023-01-26T23:41:18.890Z,52.13
